Time;durP1;ratioP1;P1;durP2;ratioP2;P2;SDS_P1;SDS_P2;PMS_P1;PMS_P2;Temp;Humidity;BMP_temperature;BMP_pressure;BME280_temperature;BME280_humidity;BME280_pressure;Samples;Min_cycle;Max_cycle;Signal;HPM_P1;HPM_P2
2023/09/08 00:02:26;;;;;;;8.65;6.65;;;;;;;;;;5129105;27;20086;-57
2023/09/08 00:04:53;;;;;;;10.85;6.75;;;;;;;;;;5125245;27;20531;-55
2023/09/08 00:07:20;;;;;;;10.07;6.68;;;;;;;;;;5128633;27;20055;-56
2023/09/08 00:09:46;;;;;;;8.00;7.13;;;;;;;;;;5127585;27;20058;-57
2023/09/08 00:12:13;;;;;;;8.43;6.78;;;;;;;;;;5123075;27;20047;-55
2023/09/08 00:14:39;;;;;;;7.68;6.88;;;;;;;;;;5114970;27;20059;-58
2023/09/08 00:17:06;;;;;;;12.48;7.13;;;;;;;;;;5122094;27;20507;-56
2023/09/08 00:19:32;;;;;;;7.57;6.78;;;;;;;;;;5124148;27;20197;-57
2023/09/08 00:22:00;;;;;;;7.70;6.88;;;;;;;;;;5124486;27;20048;-56
2023/09/08 00:24:26;;;;;;;12.88;7.38;;;;;;;;;;5121877;27;20056;-57
2023/09/08 00:26:53;;;;;;;12.70;7.95;;;;;;;;;;5122106;27;20464;-56
2023/09/08 00:29:19;;;;;;;9.02;7.20;;;;;;;;;;5117779;27;20630;-57
2023/09/08 00:31:46;;;;;;;8.70;7.82;;;;;;;;;;5116620;27;20056;-57
2023/09/08 00:34:12;;;;;;;10.00;7.85;;;;;;;;;;5113261;27;20531;-56
2023/09/08 00:36:38;;;;;;;11.98;7.97;;;;;;;;;;5121452;27;20758;-57
2023/09/08 00:39:05;;;;;;;11.27;8.68;;;;;;;;;;5108802;27;20051;-53
2023/09/08 00:41:31;;;;;;;9.40;7.57;;;;;;;;;;5122882;27;20250;-55
2023/09/08 00:43:58;;;;;;;10.80;8.52;;;;;;;;;;5119165;27;20055;-62
2023/09/08 00:46:27;;;;;;;9.40;8.40;;;;;;;;;;5122601;27;20059;-59
2023/09/08 00:48:54;;;;;;;11.35;8.45;;;;;;;;;;5120769;27;20740;-57
2023/09/08 00:51:21;;;;;;;10.65;8.95;;;;;;;;;;5120648;27;20506;-57
2023/09/08 00:53:48;;;;;;;10.07;9.05;;;;;;;;;;5126957;27;20512;-57
2023/09/08 00:56:15;;;;;;;12.00;8.85;;;;;;;;;;5120350;27;20078;-58
2023/09/08 00:58:41;;;;;;;13.82;9.65;;;;;;;;;;5127591;27;20249;-57
2023/09/08 01:01:08;;;;;;;17.90;9.45;;;;;;;;;;5128006;27;20589;-57
2023/09/08 01:03:34;;;;;;;12.65;9.55;;;;;;;;;;5120980;27;20051;-52
2023/09/08 01:06:01;;;;;;;11.30;9.38;;;;;;;;;;5120566;27;20091;-57
2023/09/08 01:08:28;;;;;;;10.63;9.52;;;;;;;;;;5119961;27;20077;-56
2023/09/08 01:10:55;;;;;;;16.58;9.48;;;;;;;;;;5128113;27;20570;-57
2023/09/08 01:13:22;;;;;;;12.15;9.38;;;;;;;;;;5121146;27;20103;-57
2023/09/08 01:15:49;;;;;;;10.13;8.95;;;;;;;;;;5118517;27;20051;-57
2023/09/08 01:18:15;;;;;;;10.07;8.98;;;;;;;;;;5103647;27;20433;-57
2023/09/08 01:20:59;;;;;;;15.02;9.75;;;;;;;;;;5116494;27;20529;-56
2023/09/08 01:23:36;;;;;;;12.07;9.50;;;;;;;;;;5124461;27;21921;-56
2023/09/08 01:26:07;;;;;;;13.20;9.68;;;;;;;;;;5118456;27;20143;-56
2023/09/08 01:28:34;;;;;;;10.55;8.98;;;;;;;;;;5121581;27;20160;-57
2023/09/08 01:31:01;;;;;;;19.75;12.00;;;;;;;;;;5122469;27;20062;-55
2023/09/08 01:33:27;;;;;;;13.60;9.43;;;;;;;;;;5130411;27;20517;-58
2023/09/08 01:35:55;;;;;;;12.95;9.65;;;;;;;;;;5124411;27;20476;-56
2023/09/08 01:38:21;;;;;;;13.45;10.65;;;;;;;;;;5125888;27;20079;-54
2023/09/08 01:40:48;;;;;;;11.73;10.52;;;;;;;;;;5126780;27;20055;-57
2023/09/08 01:43:14;;;;;;;13.27;10.10;;;;;;;;;;5125047;27;20499;-58
2023/09/08 01:45:41;;;;;;;11.73;9.70;;;;;;;;;;5123732;27;20783;-56
2023/09/08 01:48:07;;;;;;;13.32;9.82;;;;;;;;;;5123953;27;20139;-57
2023/09/08 01:50:34;;;;;;;11.05;9.65;;;;;;;;;;5125706;27;20047;-58
2023/09/08 01:53:00;;;;;;;15.65;10.27;;;;;;;;;;5122484;27;20139;-57
2023/09/08 01:55:27;;;;;;;11.75;9.30;;;;;;;;;;5119053;27;20549;-58
2023/09/08 01:57:53;;;;;;;13.43;9.77;;;;;;;;;;5126742;27;20519;-58
2023/09/08 02:00:19;;;;;;;13.25;10.35;;;;;;;;;;5120950;27;20064;-56
2023/09/08 02:02:46;;;;;;;12.27;9.80;;;;;;;;;;5128415;27;20139;-58
2023/09/08 02:05:12;;;;;;;13.70;10.98;;;;;;;;;;5122749;27;20057;-57
2023/09/08 02:07:39;;;;;;;15.38;11.05;;;;;;;;;;5124473;27;20139;-56
2023/09/08 02:10:05;;;;;;;13.18;10.82;;;;;;;;;;5119684;27;20048;-54
2023/09/08 02:12:32;;;;;;;14.70;10.93;;;;;;;;;;5123820;27;20055;-58
2023/09/08 02:14:59;;;;;;;11.50;9.90;;;;;;;;;;5122567;27;20152;-57
2023/09/08 02:17:26;;;;;;;11.07;9.68;;;;;;;;;;5128897;27;20142;-57
2023/09/08 02:19:53;;;;;;;11.60;10.13;;;;;;;;;;5128924;27;20073;-57
2023/09/08 02:22:19;;;;;;;13.90;10.75;;;;;;;;;;5124341;27;20069;-57
2023/09/08 02:24:45;;;;;;;13.65;10.80;;;;;;;;;;5126983;27;20044;-57
2023/09/08 02:27:12;;;;;;;11.65;9.90;;;;;;;;;;5121618;27;20559;-54
2023/09/08 02:29:38;;;;;;;12.68;11.32;;;;;;;;;;5119921;27;20134;-57
2023/09/08 02:32:05;;;;;;;12.05;10.15;;;;;;;;;;5123329;27;20551;-57
2023/09/08 02:34:36;;;;;;;12.68;9.88;;;;;;;;;;5124496;27;20051;-57
2023/09/08 02:37:02;;;;;;;10.55;9.45;;;;;;;;;;5129005;27;20054;-57
2023/09/08 02:39:29;;;;;;;12.80;9.70;;;;;;;;;;5123860;27;20055;-58
2023/09/08 02:41:56;;;;;;;11.90;9.98;;;;;;;;;;5124157;27;20052;-56
2023/09/08 02:44:22;;;;;;;14.18;9.80;;;;;;;;;;5127269;27;20511;-56
2023/09/08 02:46:49;;;;;;;13.73;10.30;;;;;;;;;;5131441;27;20059;-59
2023/09/08 02:49:15;;;;;;;10.73;9.57;;;;;;;;;;5124391;27;20143;-57
2023/09/08 02:51:42;;;;;;;10.55;8.85;;;;;;;;;;5125224;27;20079;-57
2023/09/08 02:54:08;;;;;;;13.40;9.75;;;;;;;;;;5121835;27;20079;-57
2023/09/08 02:56:35;;;;;;;14.55;11.45;;;;;;;;;;5119848;27;20051;-55
2023/09/08 02:59:01;;;;;;;11.13;9.95;;;;;;;;;;5116607;27;20051;-58
2023/09/08 03:01:28;;;;;;;11.50;9.85;;;;;;;;;;5123391;27;20058;-57
2023/09/08 03:03:54;;;;;;;11.65;10.00;;;;;;;;;;5121749;27;20649;-58
2023/09/08 03:06:21;;;;;;;14.45;10.45;;;;;;;;;;5099843;27;20126;-57
2023/09/08 03:08:48;;;;;;;11.82;9.52;;;;;;;;;;5123030;27;20442;-58
2023/09/08 03:11:14;;;;;;;11.80;10.23;;;;;;;;;;5122448;27;20051;-58
2023/09/08 03:13:41;;;;;;;12.68;10.07;;;;;;;;;;5121940;27;20059;-57
2023/09/08 03:16:08;;;;;;;14.07;11.02;;;;;;;;;;5125332;27;20051;-57
2023/09/08 03:18:36;;;;;;;12.52;9.93;;;;;;;;;;5121327;27;20052;-56
2023/09/08 03:21:09;;;;;;;17.33;11.65;;;;;;;;;;5106973;27;20091;-57
2023/09/08 03:23:39;;;;;;;13.45;10.25;;;;;;;;;;5122721;27;20060;-52
2023/09/08 03:26:06;;;;;;;13.95;10.30;;;;;;;;;;5120160;27;20079;-56
2023/09/08 03:28:32;;;;;;;14.77;11.40;;;;;;;;;;5123511;27;20086;-57
2023/09/08 03:31:03;;;;;;;14.50;10.95;;;;;;;;;;5121180;27;20933;-58
2023/09/08 03:33:29;;;;;;;15.23;11.13;;;;;;;;;;5107817;27;21642;-57
2023/09/08 03:35:56;;;;;;;13.77;11.73;;;;;;;;;;5107052;27;20044;-57
2023/09/08 03:38:23;;;;;;;13.15;11.05;;;;;;;;;;5117338;27;20131;-56
2023/09/08 03:40:49;;;;;;;15.10;11.55;;;;;;;;;;5123450;27;20056;-56
2023/09/08 03:43:16;;;;;;;12.77;11.00;;;;;;;;;;5121531;27;20058;-56
2023/09/08 03:45:42;;;;;;;14.10;11.23;;;;;;;;;;5126067;27;20246;-57
2023/09/08 03:48:09;;;;;;;12.10;10.77;;;;;;;;;;5123381;27;20054;-57
2023/09/08 03:50:36;;;;;;;11.90;10.65;;;;;;;;;;5126849;27;20062;-56
2023/09/08 03:53:02;;;;;;;13.98;11.82;;;;;;;;;;5126037;27;20163;-56
2023/09/08 03:55:29;;;;;;;13.15;11.75;;;;;;;;;;5127678;27;20078;-56
2023/09/08 03:57:57;;;;;;;14.65;12.10;;;;;;;;;;5127268;27;20480;-57
2023/09/08 04:00:23;;;;;;;15.52;11.88;;;;;;;;;;5122203;27;20055;-56
2023/09/08 04:02:49;;;;;;;14.00;11.90;;;;;;;;;;5126368;27;20054;-56
2023/09/08 04:05:16;;;;;;;14.73;11.82;;;;;;;;;;5128690;27;20478;-57
2023/09/08 04:07:44;;;;;;;12.30;11.00;;;;;;;;;;5116373;27;20094;-56
2023/09/08 04:10:12;;;;;;;12.52;11.25;;;;;;;;;;5124101;27;20428;-54
2023/09/08 04:12:39;;;;;;;12.85;11.13;;;;;;;;;;5114844;27;20153;-57
2023/09/08 04:15:06;;;;;;;13.13;11.73;;;;;;;;;;5114472;27;20111;-56
2023/09/08 04:17:33;;;;;;;18.48;11.73;;;;;;;;;;5126471;27;20551;-57
2023/09/08 04:19:59;;;;;;;17.42;11.80;;;;;;;;;;5123200;27;20143;-57
2023/09/08 04:22:26;;;;;;;16.92;11.95;;;;;;;;;;5127414;27;20051;-57
2023/09/08 04:24:54;;;;;;;13.32;11.48;;;;;;;;;;5126322;27;20521;-57
2023/09/08 04:27:20;;;;;;;14.32;12.20;;;;;;;;;;5122021;27;20059;-58
2023/09/08 04:29:47;;;;;;;12.95;11.52;;;;;;;;;;5130537;27;20047;-56
2023/09/08 04:32:13;;;;;;;12.23;10.95;;;;;;;;;;5118736;27;20148;-56
2023/09/08 04:34:40;;;;;;;17.63;12.82;;;;;;;;;;5121589;27;20059;-56
2023/09/08 04:37:07;;;;;;;14.57;12.20;;;;;;;;;;5121010;27;20182;-57
2023/09/08 04:39:34;;;;;;;17.20;12.68;;;;;;;;;;5123605;27;20056;-56
2023/09/08 04:42:01;;;;;;;13.63;11.82;;;;;;;;;;5121947;27;20510;-57
2023/09/08 04:44:27;;;;;;;15.52;11.98;;;;;;;;;;5119108;27;20055;-53
2023/09/08 04:46:54;;;;;;;26.95;12.15;;;;;;;;;;5125942;27;20059;-56
2023/09/08 04:49:20;;;;;;;16.75;12.50;;;;;;;;;;5122424;27;20079;-57
2023/09/08 04:51:47;;;;;;;15.48;11.95;;;;;;;;;;5121063;27;20117;-56
2023/09/08 04:54:13;;;;;;;17.35;12.82;;;;;;;;;;5119906;27;20063;-55
2023/09/08 04:56:40;;;;;;;13.77;11.93;;;;;;;;;;5120607;27;20051;-56
2023/09/08 04:59:07;;;;;;;16.75;12.88;;;;;;;;;;5121766;27;20051;-55
2023/09/08 05:01:36;;;;;;;15.63;13.02;;;;;;;;;;5125025;27;20572;-56
2023/09/08 05:04:04;;;;;;;15.30;12.43;;;;;;;;;;5126265;27;20055;-56
2023/09/08 05:06:31;;;;;;;13.93;12.35;;;;;;;;;;5126056;27;20052;-53
2023/09/08 05:08:59;;;;;;;17.42;12.75;;;;;;;;;;5124128;27;20120;-55
2023/09/08 05:11:26;;;;;;;16.52;12.75;;;;;;;;;;5123749;27;20056;-57
2023/09/08 05:13:53;;;;;;;19.15;13.05;;;;;;;;;;5126913;27;20056;-55
2023/09/08 05:16:25;;;;;;;16.52;12.27;;;;;;;;;;5121407;27;20133;-58
2023/09/08 05:18:52;;;;;;;20.60;12.80;;;;;;;;;;5123927;27;20076;-57
2023/09/08 05:21:18;;;;;;;16.40;12.90;;;;;;;;;;5123726;27;20052;-56
2023/09/08 05:23:45;;;;;;;16.00;12.30;;;;;;;;;;5122913;27;20058;-56
2023/09/08 05:26:11;;;;;;;24.17;14.35;;;;;;;;;;5123080;27;20072;-57
2023/09/08 05:28:38;;;;;;;18.33;12.73;;;;;;;;;;5122791;27;20048;-57
2023/09/08 05:31:05;;;;;;;14.32;12.60;;;;;;;;;;5126208;27;20055;-55
2023/09/08 05:33:32;;;;;;;15.18;12.60;;;;;;;;;;5126465;27;20051;-56
2023/09/08 05:35:58;;;;;;;19.15;13.15;;;;;;;;;;5124566;27;20052;-58
2023/09/08 05:38:25;;;;;;;15.60;12.07;;;;;;;;;;5128674;27;20057;-57
2023/09/08 05:40:52;;;;;;;16.52;12.55;;;;;;;;;;5123265;27;20056;-59
2023/09/08 05:43:18;;;;;;;22.13;13.63;;;;;;;;;;5120255;27;20494;-57
2023/09/08 05:45:44;;;;;;;19.10;13.02;;;;;;;;;;5122440;27;20053;-56
2023/09/08 05:48:11;;;;;;;18.17;12.70;;;;;;;;;;5124027;27;20056;-54
2023/09/08 05:50:40;;;;;;;16.73;11.40;;;;;;;;;;5126379;27;20122;-55
2023/09/08 05:53:06;;;;;;;18.00;13.52;;;;;;;;;;5125252;27;20055;-59
2023/09/08 05:55:32;;;;;;;21.35;12.90;;;;;;;;;;5123298;27;20052;-56
2023/09/08 05:57:59;;;;;;;15.70;12.50;;;;;;;;;;5116655;27;20113;-57
2023/09/08 06:00:26;;;;;;;15.80;12.52;;;;;;;;;;5113847;27;20105;-57
2023/09/08 06:02:52;;;;;;;22.08;13.85;;;;;;;;;;5124610;27;20064;-58
2023/09/08 06:05:19;;;;;;;15.48;12.38;;;;;;;;;;5126127;27;20094;-57
2023/09/08 06:07:45;;;;;;;18.40;13.00;;;;;;;;;;5124634;27;20136;-59
2023/09/08 06:10:30;;;;;;;18.42;12.80;;;;;;;;;;5122105;27;20177;-58
2023/09/08 06:12:57;;;;;;;21.70;12.43;;;;;;;;;;5122182;27;20060;-58
2023/09/08 06:15:23;;;;;;;16.75;12.10;;;;;;;;;;5116005;27;20067;-57
2023/09/08 06:17:50;;;;;;;19.52;12.88;;;;;;;;;;5124074;27;20058;-58
2023/09/08 06:20:16;;;;;;;17.60;12.85;;;;;;;;;;5121095;27;20182;-58
2023/09/08 06:22:43;;;;;;;20.25;12.40;;;;;;;;;;5105602;27;20055;-58
2023/09/08 06:25:09;;;;;;;16.33;12.10;;;;;;;;;;5124038;27;20927;-56
2023/09/08 06:27:36;;;;;;;15.25;11.93;;;;;;;;;;5124096;27;20059;-58
2023/09/08 06:30:02;;;;;;;17.55;12.10;;;;;;;;;;5124222;27;20052;-58
2023/09/08 06:32:29;;;;;;;16.77;12.35;;;;;;;;;;5123251;27;20051;-59
2023/09/08 06:34:55;;;;;;;19.55;11.98;;;;;;;;;;5124495;27;21021;-59
2023/09/08 06:37:22;;;;;;;15.25;11.57;;;;;;;;;;5125460;27;20140;-59
2023/09/08 06:39:48;;;;;;;19.50;12.07;;;;;;;;;;5123517;27;20056;-59
2023/09/08 06:42:14;;;;;;;16.63;12.57;;;;;;;;;;5124183;27;20066;-60
2023/09/08 06:44:41;;;;;;;14.82;11.90;;;;;;;;;;5123148;27;20060;-59
2023/09/08 06:47:07;;;;;;;20.25;11.57;;;;;;;;;;5124483;27;20048;-59
2023/09/08 06:49:34;;;;;;;15.52;11.40;;;;;;;;;;5125465;27;20124;-59
2023/09/08 06:52:01;;;;;;;16.13;11.50;;;;;;;;;;5104965;27;20051;-60
2023/09/08 06:54:28;;;;;;;16.35;11.43;;;;;;;;;;5125588;27;20421;-59
2023/09/08 06:56:54;;;;;;;14.55;10.93;;;;;;;;;;5121843;27;20058;-59
2023/09/08 06:59:21;;;;;;;13.50;10.55;;;;;;;;;;5124616;27;20055;-58
2023/09/08 07:01:47;;;;;;;18.60;10.90;;;;;;;;;;5123549;27;20048;-57
2023/09/08 07:04:14;;;;;;;15.07;11.23;;;;;;;;;;5120191;27;20062;-58
2023/09/08 07:06:43;;;;;;;15.45;10.88;;;;;;;;;;5104257;27;20048;-59
2023/09/08 07:09:09;;;;;;;16.65;10.85;;;;;;;;;;5123696;27;20151;-59
2023/09/08 07:11:36;;;;;;;13.70;10.50;;;;;;;;;;5123770;27;20047;-58
2023/09/08 07:14:02;;;;;;;14.25;10.15;;;;;;;;;;5121036;27;20052;-59
2023/09/08 07:16:29;;;;;;;14.88;10.32;;;;;;;;;;5123210;27;20062;-59
2023/09/08 07:18:55;;;;;;;14.60;11.00;;;;;;;;;;5118486;27;20640;-59
2023/09/08 07:21:22;;;;;;;15.65;10.82;;;;;;;;;;5122038;27;20048;-60
2023/09/08 07:23:48;;;;;;;12.35;9.50;;;;;;;;;;5118220;27;20059;-59
2023/09/08 07:26:16;;;;;;;12.38;9.05;;;;;;;;;;5119245;27;20052;-59
2023/09/08 07:28:43;;;;;;;11.88;9.55;;;;;;;;;;5122115;27;20059;-59
2023/09/08 07:31:10;;;;;;;13.00;9.73;;;;;;;;;;5123920;27;20054;-59
2023/09/08 07:33:37;;;;;;;11.63;9.02;;;;;;;;;;5105182;27;20044;-59
2023/09/08 07:36:07;;;;;;;12.68;9.52;;;;;;;;;;5123412;27;20055;-57
2023/09/08 07:38:34;;;;;;;15.27;10.43;;;;;;;;;;5122974;27;20127;-58
2023/09/08 07:41:02;;;;;;;18.08;9.60;;;;;;;;;;5124927;27;20169;-59
2023/09/08 07:43:28;;;;;;;15.90;9.77;;;;;;;;;;5123372;27;20448;-58
2023/09/08 07:45:55;;;;;;;13.95;9.45;;;;;;;;;;5104851;27;20876;-60
2023/09/08 07:48:21;;;;;;;14.52;9.80;;;;;;;;;;5122323;27;20047;-58
2023/09/08 07:50:48;;;;;;;14.68;9.40;;;;;;;;;;5116174;27;20066;-60
2023/09/08 07:53:14;;;;;;;10.27;9.25;;;;;;;;;;5122867;27;20060;-58
2023/09/08 07:55:41;;;;;;;12.45;9.60;;;;;;;;;;5122316;27;20163;-59
2023/09/08 07:58:07;;;;;;;9.80;8.60;;;;;;;;;;5104362;27;20051;-59
2023/09/08 08:00:34;;;;;;;9.48;8.35;;;;;;;;;;5118567;27;20055;-59
2023/09/08 08:03:00;;;;;;;16.58;9.40;;;;;;;;;;5123642;27;20052;-60
2023/09/08 08:05:27;;;;;;;12.40;9.30;;;;;;;;;;5122780;27;20055;-60
2023/09/08 08:07:53;;;;;;;12.88;9.02;;;;;;;;;;5122475;27;20056;-59
2023/09/08 08:10:20;;;;;;;19.27;9.10;;;;;;;;;;5120190;27;20059;-59
2023/09/08 08:12:46;;;;;;;12.68;9.38;;;;;;;;;;5120399;27;20508;-59
2023/09/08 08:15:13;;;;;;;9.88;8.88;;;;;;;;;;5122792;27;20075;-59
2023/09/08 08:17:40;;;;;;;10.75;9.32;;;;;;;;;;5113798;27;20105;-59
2023/09/08 08:20:10;;;;;;;13.60;8.95;;;;;;;;;;5121823;27;20056;-60
2023/09/08 08:22:37;;;;;;;12.40;8.60;;;;;;;;;;5115151;27;20536;-59
2023/09/08 08:25:04;;;;;;;17.35;9.35;;;;;;;;;;5123387;27;20056;-59
2023/09/08 08:27:33;;;;;;;11.48;9.13;;;;;;;;;;5121817;27;20533;-60
2023/09/08 08:30:00;;;;;;;17.90;9.10;;;;;;;;;;5117098;27;20058;-58
2023/09/08 08:32:27;;;;;;;11.57;8.77;;;;;;;;;;5120533;27;20142;-59
2023/09/08 08:34:55;;;;;;;10.13;8.55;;;;;;;;;;5120888;27;20537;-59
2023/09/08 08:37:21;;;;;;;12.85;8.52;;;;;;;;;;5122496;27;20075;-59
2023/09/08 08:39:48;;;;;;;11.60;8.77;;;;;;;;;;5122415;27;20105;-59
2023/09/08 08:42:15;;;;;;;10.20;7.97;;;;;;;;;;5122099;27;20085;-59
2023/09/08 08:44:42;;;;;;;13.48;10.02;;;;;;;;;;5103712;27;20058;-58
2023/09/08 08:47:09;;;;;;;13.30;8.23;;;;;;;;;;5118248;27;20051;-59
2023/09/08 08:49:36;;;;;;;12.23;8.40;;;;;;;;;;5118291;27;20060;-58
2023/09/08 08:52:07;;;;;;;9.80;8.30;;;;;;;;;;5122240;27;20059;-59
2023/09/08 08:54:38;;;;;;;9.27;7.25;;;;;;;;;;5122847;27;20058;-60
2023/09/08 08:57:05;;;;;;;11.02;7.63;;;;;;;;;;5120442;27;20056;-58
2023/09/08 08:59:32;;;;;;;12.23;8.38;;;;;;;;;;5122685;27;20103;-59
2023/09/08 09:01:59;;;;;;;9.35;7.15;;;;;;;;;;5117216;27;20055;-59
2023/09/08 09:04:26;;;;;;;11.20;7.72;;;;;;;;;;5120332;27;20493;-56
2023/09/08 09:06:52;;;;;;;10.98;7.70;;;;;;;;;;5103470;27;20058;-56
2023/09/08 09:09:19;;;;;;;12.02;7.90;;;;;;;;;;5118523;27;20506;-57
2023/09/08 09:11:45;;;;;;;11.07;6.80;;;;;;;;;;5119972;27;20075;-57
2023/09/08 09:14:12;;;;;;;9.10;7.45;;;;;;;;;;5124739;27;20056;-59
2023/09/08 09:16:40;;;;;;;7.93;7.13;;;;;;;;;;5118564;27;20052;-55
2023/09/08 09:19:06;;;;;;;8.05;7.25;;;;;;;;;;5120808;27;20058;-58
2023/09/08 09:21:44;;;;;;;12.88;7.32;;;;;;;;;;5123348;27;20067;-57
2023/09/08 09:24:14;;;;;;;9.95;7.32;;;;;;;;;;5111988;27;20052;-57
2023/09/08 09:26:44;;;;;;;9.85;6.95;;;;;;;;;;5113972;27;20052;-57
2023/09/08 09:29:13;;;;;;;8.25;7.03;;;;;;;;;;5116630;27;20559;-54
2023/09/08 09:31:53;;;;;;;11.05;8.35;;;;;;;;;;5112445;27;20091;-57
2023/09/08 09:34:20;;;;;;;9.38;7.07;;;;;;;;;;5121809;27;20054;-54
2023/09/08 09:36:49;;;;;;;10.10;7.18;;;;;;;;;;5122495;27;20111;-58
2023/09/08 09:39:19;;;;;;;10.55;7.32;;;;;;;;;;5118271;27;20170;-55
2023/09/08 09:41:46;;;;;;;11.02;7.20;;;;;;;;;;5119770;27;20040;-56
2023/09/08 09:44:12;;;;;;;10.65;6.88;;;;;;;;;;5102882;27;20128;-58
2023/09/08 09:46:42;;;;;;;8.38;6.32;;;;;;;;;;5098171;27;20058;-56
2023/09/08 09:49:10;;;;;;;9.40;6.78;;;;;;;;;;5118372;27;20063;-58
2023/09/08 09:51:40;;;;;;;10.00;7.35;;;;;;;;;;5121795;27;20575;-56
2023/09/08 09:54:06;;;;;;;8.13;7.15;;;;;;;;;;5124513;27;20645;-58
2023/09/08 09:56:34;;;;;;;8.45;6.60;;;;;;;;;;5124971;27;20047;-54
2023/09/08 09:59:02;;;;;;;10.40;7.10;;;;;;;;;;5122628;27;20533;-56
2023/09/08 10:01:29;;;;;;;10.77;7.07;;;;;;;;;;5106367;27;20052;-54
2023/09/08 10:03:56;;;;;;;8.00;6.53;;;;;;;;;;5125373;27;20051;-58
2023/09/08 10:06:23;;;;;;;8.20;6.80;;;;;;;;;;5105110;27;20122;-57
2023/09/08 10:08:50;;;;;;;9.45;6.65;;;;;;;;;;5116934;27;20062;-57
2023/09/08 10:11:19;;;;;;;10.98;7.13;;;;;;;;;;5124851;27;20576;-57
2023/09/08 10:13:50;;;;;;;9.18;6.05;;;;;;;;;;5117947;27;20143;-58
2023/09/08 10:16:19;;;;;;;10.07;6.95;;;;;;;;;;5120567;27;20573;-58
2023/09/08 10:18:47;;;;;;;10.25;6.90;;;;;;;;;;5120668;27;20052;-57
2023/09/08 10:21:14;;;;;;;8.95;6.82;;;;;;;;;;5099946;27;20541;-58
2023/09/08 10:23:42;;;;;;;11.23;6.47;;;;;;;;;;5123092;27;20625;-58
2023/09/08 10:26:10;;;;;;;12.77;6.82;;;;;;;;;;5114380;27;20084;-58
2023/09/08 10:28:37;;;;;;;11.05;7.40;;;;;;;;;;5123945;27;20063;-57
2023/09/08 10:31:04;;;;;;;6.95;6.28;;;;;;;;;;5124602;27;20113;-57
2023/09/08 10:33:32;;;;;;;11.30;6.32;;;;;;;;;;5125801;27;20054;-57
2023/09/08 10:35:59;;;;;;;8.25;6.72;;;;;;;;;;5124925;27;20544;-57
2023/09/08 10:38:27;;;;;;;9.07;6.55;;;;;;;;;;5106049;27;20517;-57
2023/09/08 10:41:13;;;;;;;12.10;6.53;;;;;;;;;;5122517;27;20132;-57
2023/09/08 10:43:40;;;;;;;11.43;6.20;;;;;;;;;;5122548;27;20056;-57
2023/09/08 10:46:10;;;;;;;10.23;7.15;;;;;;;;;;5114826;27;20079;-57
2023/09/08 10:48:41;;;;;;;13.63;7.10;;;;;;;;;;5125140;27;20044;-57
2023/09/08 10:51:12;;;;;;;9.65;7.00;;;;;;;;;;5115826;27;20056;-57
2023/09/08 10:53:39;;;;;;;7.80;6.28;;;;;;;;;;5122167;27;20456;-55
2023/09/08 10:56:05;;;;;;;7.60;6.63;;;;;;;;;;5118412;27;20068;-56
2023/09/08 10:58:48;;;;;;;6.60;5.80;;;;;;;;;;5116974;27;20105;-54
2023/09/08 11:01:18;;;;;;;8.15;5.50;;;;;;;;;;5120183;27;20436;-56
2023/09/08 11:03:46;;;;;;;9.00;5.90;;;;;;;;;;5116084;27;20104;-56
2023/09/08 11:06:15;;;;;;;8.95;5.70;;;;;;;;;;5120811;27;20055;-56
2023/09/08 11:08:42;;;;;;;6.88;5.68;;;;;;;;;;5122933;27;20059;-57
2023/09/08 11:11:13;;;;;;;8.73;6.22;;;;;;;;;;5124616;27;20051;-58
2023/09/08 11:13:40;;;;;;;6.60;5.82;;;;;;;;;;5123083;27;20055;-58
2023/09/08 11:16:06;;;;;;;6.13;5.45;;;;;;;;;;5122642;27;20090;-53
2023/09/08 11:18:33;;;;;;;11.13;5.97;;;;;;;;;;5123066;27;20573;-57
2023/09/08 11:21:02;;;;;;;6.35;5.60;;;;;;;;;;5123578;27;20071;-57
2023/09/08 11:23:28;;;;;;;9.35;5.78;;;;;;;;;;5123764;27;20056;-58
2023/09/08 11:25:55;;;;;;;7.00;5.60;;;;;;;;;;5123576;27;20614;-57
2023/09/08 11:28:22;;;;;;;7.03;6.00;;;;;;;;;;5121954;27;20048;-56
2023/09/08 11:30:49;;;;;;;9.65;6.05;;;;;;;;;;5123430;27;20686;-56
2023/09/08 11:33:17;;;;;;;7.97;6.05;;;;;;;;;;5122029;27;20044;-57
2023/09/08 11:35:46;;;;;;;9.85;6.03;;;;;;;;;;5121015;27;20362;-57
2023/09/08 11:38:13;;;;;;;6.38;5.50;;;;;;;;;;5122867;27;20051;-56
2023/09/08 11:40:40;;;;;;;9.60;5.57;;;;;;;;;;5122985;27;20506;-56
2023/09/08 11:43:07;;;;;;;7.75;5.80;;;;;;;;;;5121211;27;20055;-58
2023/09/08 11:45:35;;;;;;;6.35;5.25;;;;;;;;;;5119403;27;20056;-57
2023/09/08 11:48:02;;;;;;;10.77;5.13;;;;;;;;;;5123525;27;20044;-57
2023/09/08 11:50:30;;;;;;;6.50;5.55;;;;;;;;;;5113349;27;20082;-56
2023/09/08 11:53:02;;;;;;;8.63;5.70;;;;;;;;;;5117277;27;20063;-54
2023/09/08 11:55:29;;;;;;;6.22;5.38;;;;;;;;;;5127376;27;20075;-58
2023/09/08 11:58:00;;;;;;;6.38;5.43;;;;;;;;;;5121816;27;20341;-54
2023/09/08 12:00:27;;;;;;;8.10;5.13;;;;;;;;;;5122331;27;20052;-57
2023/09/08 12:02:54;;;;;;;5.47;4.97;;;;;;;;;;5119765;27;20277;-57
2023/09/08 12:05:21;;;;;;;8.93;5.85;;;;;;;;;;5123474;27;20052;-56
2023/09/08 12:07:49;;;;;;;6.90;5.10;;;;;;;;;;5122620;27;20047;-54
2023/09/08 12:10:17;;;;;;;7.63;5.95;;;;;;;;;;5122383;27;20083;-57
2023/09/08 12:12:45;;;;;;;9.68;5.57;;;;;;;;;;5117333;27;20066;-54
2023/09/08 12:15:11;;;;;;;7.57;5.25;;;;;;;;;;5114512;27;20522;-58
2023/09/08 12:17:50;;;;;;;9.20;5.68;;;;;;;;;;5120771;27;20054;-56
2023/09/08 12:20:17;;;;;;;9.75;5.70;;;;;;;;;;5105093;27;20928;-56
2023/09/08 12:22:50;;;;;;;13.52;5.35;;;;;;;;;;5105148;27;20055;-56
2023/09/08 12:25:16;;;;;;;6.78;5.40;;;;;;;;;;5119909;27;20583;-57
2023/09/08 12:27:44;;;;;;;6.03;5.25;;;;;;;;;;5112505;27;20062;-57
2023/09/08 12:30:16;;;;;;;5.40;4.90;;;;;;;;;;5116459;27;20077;-56
2023/09/08 12:32:45;;;;;;;7.53;5.28;;;;;;;;;;5121197;27;20052;-56
2023/09/08 12:35:11;;;;;;;11.40;6.18;;;;;;;;;;5121440;27;20048;-57
2023/09/08 12:37:38;;;;;;;14.70;6.05;;;;;;;;;;5118444;27;20058;-55
2023/09/08 12:40:05;;;;;;;9.85;5.07;;;;;;;;;;5123153;27;20048;-55
2023/09/08 12:42:32;;;;;;;6.22;5.35;;;;;;;;;;5119892;27;20083;-56
2023/09/08 12:45:06;;;;;;;7.68;5.35;;;;;;;;;;5119942;27;20051;-56
2023/09/08 12:47:35;;;;;;;7.47;5.00;;;;;;;;;;5121660;27;20047;-56
2023/09/08 12:50:03;;;;;;;5.35;4.47;;;;;;;;;;5123845;27;20151;-57
2023/09/08 12:52:31;;;;;;;7.90;5.57;;;;;;;;;;5120751;27;20066;-57
2023/09/08 12:54:58;;;;;;;7.60;4.95;;;;;;;;;;5120530;27;20079;-57
2023/09/08 12:57:26;;;;;;;5.47;4.50;;;;;;;;;;5122912;27;20968;-57
2023/09/08 12:59:54;;;;;;;5.45;4.43;;;;;;;;;;5115818;27;20069;-57
2023/09/08 13:02:21;;;;;;;6.07;4.60;;;;;;;;;;5117031;27;20056;-57
2023/09/08 13:04:48;;;;;;;8.85;4.65;;;;;;;;;;5122256;27;20064;-57
2023/09/08 13:07:16;;;;;;;5.82;4.50;;;;;;;;;;5121482;27;20052;-57
2023/09/08 13:09:42;;;;;;;8.68;4.47;;;;;;;;;;5122878;27;20083;-57
2023/09/08 13:12:10;;;;;;;4.38;4.00;;;;;;;;;;5104215;27;20056;-57
2023/09/08 13:14:36;;;;;;;5.07;4.13;;;;;;;;;;5119830;27;20601;-58
2023/09/08 13:17:02;;;;;;;6.93;4.28;;;;;;;;;;5120922;27;20108;-57
2023/09/08 13:19:33;;;;;;;7.18;4.30;;;;;;;;;;5122614;27;20146;-57
2023/09/08 13:22:00;;;;;;;11.07;4.57;;;;;;;;;;5119097;27;20044;-57
2023/09/08 13:24:27;;;;;;;5.13;4.60;;;;;;;;;;5121605;27;20051;-56
2023/09/08 13:26:53;;;;;;;6.95;4.90;;;;;;;;;;5123424;27;20137;-56
2023/09/08 13:29:19;;;;;;;4.57;4.15;;;;;;;;;;5123077;27;20133;-56
2023/09/08 13:31:46;;;;;;;6.07;4.57;;;;;;;;;;5123189;27;20133;-54
2023/09/08 13:34:13;;;;;;;6.85;4.28;;;;;;;;;;5124533;27;20056;-57
2023/09/08 13:36:39;;;;;;;6.03;4.00;;;;;;;;;;5124781;27;20044;-54
2023/09/08 13:39:06;;;;;;;9.88;4.10;;;;;;;;;;5123298;27;20495;-57
2023/09/08 13:41:51;;;;;;;5.80;4.55;;;;;;;;;;5124054;27;20047;-55
2023/09/08 13:44:20;;;;;;;7.15;4.03;;;;;;;;;;5124421;27;20462;-58
2023/09/08 13:46:47;;;;;;;8.02;4.03;;;;;;;;;;5104603;27;20048;-58
2023/09/08 13:49:14;;;;;;;4.93;3.88;;;;;;;;;;5125010;27;20055;-56
2023/09/08 13:51:43;;;;;;;6.32;4.22;;;;;;;;;;5117799;27;20151;-56
2023/09/08 13:54:11;;;;;;;5.05;4.38;;;;;;;;;;5119159;27;20593;-55
2023/09/08 13:56:40;;;;;;;7.13;3.92;;;;;;;;;;5124944;27;20051;-57
2023/09/08 13:59:11;;;;;;;7.90;4.28;;;;;;;;;;5121375;27;20129;-58
2023/09/08 14:01:38;;;;;;;8.38;3.90;;;;;;;;;;5105775;27;20075;-58
2023/09/08 14:04:07;;;;;;;5.85;4.00;;;;;;;;;;5105155;27;20062;-57
2023/09/08 14:06:35;;;;;;;4.53;3.88;;;;;;;;;;5122137;27;20469;-55
2023/09/08 14:09:07;;;;;;;7.30;4.00;;;;;;;;;;5119305;27;20595;-57
2023/09/08 14:11:36;;;;;;;4.75;4.35;;;;;;;;;;5121156;27;20066;-55
2023/09/08 14:14:05;;;;;;;4.20;3.80;;;;;;;;;;5121741;27;20095;-57
2023/09/08 14:16:32;;;;;;;5.43;4.35;;;;;;;;;;5122570;27;20048;-58
2023/09/08 14:18:58;;;;;;;4.85;4.10;;;;;;;;;;5115685;27;20078;-58
2023/09/08 14:21:25;;;;;;;4.95;3.60;;;;;;;;;;5123692;27;20055;-57
2023/09/08 14:23:55;;;;;;;6.43;4.30;;;;;;;;;;5122447;27;20052;-57
2023/09/08 14:26:21;;;;;;;6.00;3.75;;;;;;;;;;5115570;27;20354;-57
2023/09/08 14:28:48;;;;;;;7.50;4.38;;;;;;;;;;5121234;27;20056;-56
2023/09/08 14:31:14;;;;;;;5.78;4.03;;;;;;;;;;5123599;27;20051;-58
2023/09/08 14:33:41;;;;;;;5.30;4.05;;;;;;;;;;5123455;27;20509;-57